Time;durP1;ratioP1;P1;durP2;ratioP2;P2;SDS_P1;SDS_P2;PMS_P1;PMS_P2;Temp;Humidity;BMP_temperature;BMP_pressure;BME280_temperature;BME280_humidity;BME280_pressure;Samples;Min_cycle;Max_cycle;Signal;HPM_P1;HPM_P2
2022/08/06 00:02:07;;;;;;;4.13;0.65;;;15.60;99.90;;;;;;5058658;28;20025;-81
2022/08/06 00:04:33;;;;;;;3.90;1.00;;;15.60;99.90;;;;;;5042742;28;20029;-79
2022/08/06 00:06:59;;;;;;;4.70;1.02;;;15.60;99.90;;;;;;5034125;28;20519;-79
2022/08/06 00:09:34;;;;;;;2.60;0.70;;;15.60;99.90;;;;;;5035097;28;20064;-79
2022/08/06 00:12:01;;;;;;;2.65;0.90;;;15.60;99.90;;;;;;5037184;28;20028;-79
2022/08/06 00:14:29;;;;;;;3.53;0.80;;;15.50;99.90;;;;;;5035207;28;20195;-79
2022/08/06 00:16:55;;;;;;;2.15;0.82;;;15.50;99.90;;;;;;5028511;28;20061;-79
2022/08/06 00:19:21;;;;;;;2.42;0.80;;;15.50;99.90;;;;;;5054107;28;20033;-79
2022/08/06 00:21:48;;;;;;;1.90;0.60;;;15.50;99.90;;;;;;5055741;28;20040;-79
2022/08/06 00:24:14;;;;;;;2.92;1.00;;;15.50;99.90;;;;;;5053651;28;20028;-80
2022/08/06 00:26:40;;;;;;;4.60;0.95;;;15.50;99.90;;;;;;5035991;28;20277;-79
2022/08/06 00:29:06;;;;;;;2.05;0.70;;;15.40;99.90;;;;;;5036621;28;20032;-79
2022/08/06 00:31:32;;;;;;;2.95;1.00;;;15.50;99.90;;;;;;5037309;28;20025;-79
2022/08/06 00:34:01;;;;;;;6.57;1.10;;;15.40;99.90;;;;;;5053198;28;20104;-79
2022/08/06 00:36:28;;;;;;;2.75;0.80;;;15.40;99.90;;;;;;5033892;28;20029;-79
2022/08/06 00:38:55;;;;;;;2.35;0.80;;;15.40;99.90;;;;;;5052930;28;20623;-80
2022/08/06 00:41:22;;;;;;;3.75;0.90;;;15.40;99.90;;;;;;5032526;28;20032;-79
2022/08/06 00:43:48;;;;;;;3.97;0.90;;;15.40;99.90;;;;;;5052405;28;20025;-79
2022/08/06 00:46:15;;;;;;;4.43;1.17;;;15.40;99.90;;;;;;5018034;28;20385;-79
2022/08/06 00:48:40;;;;;;;2.60;0.52;;;15.30;99.90;;;;;;5034993;28;20407;-79
2022/08/06 00:51:06;;;;;;;2.88;0.90;;;15.30;99.90;;;;;;5052318;28;20028;-79
2022/08/06 00:53:32;;;;;;;3.58;0.80;;;15.30;99.90;;;;;;5034075;28;20053;-79
2022/08/06 00:55:58;;;;;;;2.47;0.73;;;15.30;99.90;;;;;;5033228;28;20059;-79
2022/08/06 00:58:24;;;;;;;2.00;0.70;;;15.30;99.90;;;;;;5021361;28;20378;-79
2022/08/06 01:00:49;;;;;;;5.00;1.08;;;15.30;99.90;;;;;;5057735;28;20131;-78
2022/08/06 01:03:16;;;;;;;5.60;0.80;;;15.30;99.90;;;;;;5050808;28;20151;-80
2022/08/06 01:05:44;;;;;;;3.53;1.05;;;15.30;99.90;;;;;;5051713;28;20400;-78
2022/08/06 01:08:11;;;;;;;3.45;0.95;;;15.30;99.90;;;;;;5034688;28;20029;-79
2022/08/06 01:10:37;;;;;;;2.53;0.90;;;15.20;99.90;;;;;;5016110;28;20033;-80
2022/08/06 01:13:03;;;;;;;2.42;1.02;;;15.20;99.90;;;;;;5033811;28;20039;-79
2022/08/06 01:15:29;;;;;;;2.33;0.82;;;15.30;99.90;;;;;;5054376;28;20056;-79
2022/08/06 01:18:08;;;;;;;3.15;0.90;;;15.20;99.90;;;;;;5038389;28;20091;-79
2022/08/06 01:21:13;;;;;;;3.13;0.90;;;15.20;99.90;;;;;;5053288;28;20024;-79
2022/08/06 01:24:07;;;;;;;3.22;1.45;;;15.20;99.90;;;;;;5017113;28;20020;-81
2022/08/06 01:26:39;;;;;;;5.20;1.52;;;15.20;99.90;;;;;;5010685;28;20033;-79
2022/08/06 01:29:15;;;;;;;3.47;1.05;;;15.10;99.90;;;;;;5051200;28;20221;-79
2022/08/06 01:32:11;;;;;;;5.20;0.95;;;15.10;99.90;;;;;;5048591;28;20102;-78
2022/08/06 01:34:52;;;;;;;3.03;0.88;;;15.10;99.90;;;;;;5012420;28;20037;-78
2022/08/06 01:37:43;;;;;;;1.73;1.00;;;15.00;99.90;;;;;;5030698;28;20070;-80
2022/08/06 01:40:17;;;;;;;2.60;0.80;;;15.00;99.90;;;;;;5033809;28;20409;-80
2022/08/06 01:42:44;;;;;;;2.00;0.80;;;15.00;99.90;;;;;;5033697;28;20275;-80
2022/08/06 01:45:17;;;;;;;4.78;1.08;;;15.00;99.90;;;;;;5012742;28;20025;-80
2022/08/06 01:47:47;;;;;;;4.97;1.13;;;15.00;99.90;;;;;;5034276;28;20427;-80
2022/08/06 01:50:14;;;;;;;3.60;0.75;;;15.00;99.90;;;;;;5031253;28;20412;-79
2022/08/06 01:52:43;;;;;;;4.75;0.95;;;14.90;99.90;;;;;;5032659;28;20082;-79
2022/08/06 01:55:15;;;;;;;5.32;1.50;;;15.00;99.90;;;;;;5050172;28;20037;-78
2022/08/06 01:57:48;;;;;;;1.85;0.80;;;14.90;99.90;;;;;;5034408;28;20067;-78
2022/08/06 02:00:15;;;;;;;4.28;1.10;;;14.90;99.90;;;;;;5015521;28;20057;-79
2022/08/06 02:02:42;;;;;;;2.22;1.13;;;14.90;99.90;;;;;;5029010;28;20040;-78
2022/08/06 02:05:09;;;;;;;4.05;1.10;;;14.90;99.90;;;;;;5030543;28;20033;-80
2022/08/06 02:07:38;;;;;;;1.45;0.70;;;14.90;99.90;;;;;;5032816;28;20075;-78
2022/08/06 02:10:06;;;;;;;4.82;1.02;;;14.90;99.90;;;;;;5045543;28;20037;-77
2022/08/06 02:12:34;;;;;;;2.10;0.70;;;14.90;99.90;;;;;;5029927;28;20025;-78
2022/08/06 02:15:09;;;;;;;3.65;1.20;;;14.80;99.90;;;;;;5033279;28;20320;-77
2022/08/06 02:17:42;;;;;;;2.92;1.20;;;14.80;99.90;;;;;;5036576;28;20063;-78
2022/08/06 02:20:10;;;;;;;3.95;1.35;;;14.80;99.90;;;;;;5053693;28;20087;-80
2022/08/06 02:22:39;;;;;;;5.38;1.02;;;14.80;99.90;;;;;;5051643;28;20036;-79
2022/08/06 02:25:11;;;;;;;2.63;0.98;;;14.80;99.90;;;;;;5053151;28;20035;-78
2022/08/06 02:27:45;;;;;;;4.97;0.82;;;14.80;99.90;;;;;;5033779;28;20033;-80
2022/08/06 02:30:12;;;;;;;3.15;0.80;;;14.70;99.90;;;;;;5032808;28;20032;-80
2022/08/06 02:32:39;;;;;;;3.50;1.00;;;14.70;99.90;;;;;;5051906;28;20052;-80
2022/08/06 02:35:05;;;;;;;4.53;1.10;;;14.70;99.90;;;;;;5028194;28;20095;-79
2022/08/06 02:37:44;;;;;;;3.65;1.40;;;14.70;99.90;;;;;;5032849;28;20125;-79
2022/08/06 02:40:35;;;;;;;3.15;0.82;;;14.70;99.90;;;;;;5018711;28;20128;-78
2022/08/06 02:43:04;;;;;;;3.75;1.05;;;14.70;99.90;;;;;;5034702;28;20093;-78
2022/08/06 02:45:51;;;;;;;3.33;1.08;;;14.60;99.90;;;;;;5018610;28;20544;-80
2022/08/06 02:48:27;;;;;;;4.75;0.80;;;14.60;99.90;;;;;;5027318;28;20021;-79
2022/08/06 02:50:57;;;;;;;4.57;1.17;;;14.60;99.90;;;;;;5040058;28;20021;-78
2022/08/06 02:53:42;;;;;;;5.05;1.55;;;14.60;99.90;;;;;;5037407;28;20024;-79
2022/08/06 02:56:11;;;;;;;3.60;0.90;;;14.60;99.90;;;;;;5018616;28;20067;-79
2022/08/06 02:58:49;;;;;;;3.53;1.08;;;14.60;99.90;;;;;;5021641;28;20033;-78
2022/08/06 03:01:21;;;;;;;4.25;1.30;;;14.60;99.90;;;;;;5039310;28;20029;-78
2022/08/06 03:03:50;;;;;;;3.88;1.23;;;14.60;99.90;;;;;;5023744;28;20029;-79
2022/08/06 03:06:19;;;;;;;5.07;1.23;;;14.50;99.90;;;;;;5024764;28;20029;-79
2022/08/06 03:08:47;;;;;;;4.97;1.20;;;14.50;99.90;;;;;;5041552;28;20075;-78
2022/08/06 03:11:14;;;;;;;3.20;1.02;;;14.50;99.90;;;;;;5059488;28;20049;-77
2022/08/06 03:13:42;;;;;;;2.45;1.00;;;14.50;99.90;;;;;;5059243;28;20048;-80
2022/08/06 03:16:09;;;;;;;3.53;1.10;;;14.50;99.90;;;;;;5042459;28;20059;-78
2022/08/06 03:18:37;;;;;;;5.32;1.20;;;14.50;99.90;;;;;;5037717;28;20033;-79
2022/08/06 03:21:05;;;;;;;3.28;1.40;;;14.50;99.90;;;;;;5058673;28;20400;-78
2022/08/06 03:23:32;;;;;;;2.30;1.02;;;14.40;99.90;;;;;;5041005;28;20033;-79
2022/08/06 03:26:00;;;;;;;2.65;1.08;;;14.50;99.90;;;;;;5040365;28;20037;-79
2022/08/06 03:28:27;;;;;;;4.55;1.10;;;14.50;99.90;;;;;;5041187;28;20029;-80
2022/08/06 03:30:54;;;;;;;4.38;1.35;;;14.40;99.90;;;;;;5057879;28;20029;-79
2022/08/06 03:33:21;;;;;;;4.75;1.25;;;14.40;99.90;;;;;;5058190;28;20347;-79
2022/08/06 03:35:49;;;;;;;2.22;1.52;;;14.40;99.90;;;;;;5038471;28;20124;-80
2022/08/06 03:38:16;;;;;;;2.15;1.02;;;14.30;99.90;;;;;;5039278;28;20021;-78
2022/08/06 03:40:48;;;;;;;3.50;1.50;;;14.30;99.90;;;;;;5041094;28;20025;-79
2022/08/06 03:43:14;;;;;;;3.42;1.10;;;14.30;99.90;;;;;;5041149;28;20040;-78
2022/08/06 03:45:46;;;;;;;2.92;1.10;;;14.30;99.90;;;;;;5040880;28;20025;-79
2022/08/06 03:48:14;;;;;;;4.93;1.30;;;14.30;99.90;;;;;;5037299;28;20025;-79
2022/08/06 03:50:43;;;;;;;3.03;0.98;;;14.20;99.90;;;;;;5026187;28;20025;-79
2022/08/06 03:53:17;;;;;;;3.17;1.23;;;14.20;99.90;;;;;;5059387;28;20037;-79
2022/08/06 03:55:45;;;;;;;4.32;1.25;;;14.20;99.90;;;;;;5025940;28;20028;-80
2022/08/06 03:58:12;;;;;;;2.22;1.25;;;14.20;99.90;;;;;;5040325;28;20401;-79
2022/08/06 04:00:45;;;;;;;3.53;1.40;;;14.20;99.90;;;;;;5059239;28;20025;-80
2022/08/06 04:03:13;;;;;;;2.75;1.30;;;14.20;99.90;;;;;;5039772;28;20043;-78
2022/08/06 04:05:41;;;;;;;5.75;1.40;;;14.20;99.90;;;;;;5041543;28;20032;-80
2022/08/06 04:08:09;;;;;;;3.42;1.27;;;14.20;99.90;;;;;;5042639;28;20029;-78
2022/08/06 04:10:40;;;;;;;3.65;1.70;;;14.20;99.90;;;;;;5040708;28;20029;-78
2022/08/06 04:13:07;;;;;;;;;;;14.20;99.90;;;;;;5055402;28;20096;-80
2022/08/06 04:15:34;;;;;;;3.15;1.60;;;14.10;99.90;;;;;;5024506;28;19912;-80
2022/08/06 04:18:00;;;;;;;4.68;1.77;;;14.10;99.90;;;;;;5060384;28;20084;-79
2022/08/06 04:20:28;;;;;;;3.60;1.50;;;14.10;99.90;;;;;;5057765;28;20024;-79
2022/08/06 04:22:54;;;;;;;4.63;1.63;;;14.00;99.90;;;;;;5024246;28;20041;-79
2022/08/06 04:25:22;;;;;;;2.22;1.27;;;14.10;99.90;;;;;;5058638;28;20033;-80
2022/08/06 04:27:49;;;;;;;1.45;1.23;;;14.00;99.90;;;;;;5006324;28;20044;-78
2022/08/06 04:30:15;;;;;;;5.88;1.58;;;14.00;99.90;;;;;;5060055;28;20025;-77
2022/08/06 04:32:44;;;;;;;2.30;1.48;;;14.10;99.90;;;;;;5051793;28;20094;-78
2022/08/06 04:35:11;;;;;;;2.35;1.23;;;14.10;99.90;;;;;;5052721;28;20057;-80
2022/08/06 04:37:37;;;;;;;4.03;1.40;;;14.10;99.90;;;;;;5034880;28;20084;-80
2022/08/06 04:40:06;;;;;;;3.17;1.42;;;14.00;99.90;;;;;;5035432;28;20033;-80
2022/08/06 04:42:32;;;;;;;5.00;1.63;;;14.10;99.90;;;;;;5022303;28;20037;-79
2022/08/06 04:44:58;;;;;;;4.90;1.58;;;14.10;99.90;;;;;;5022357;28;20024;-79
2022/08/06 04:47:24;;;;;;;3.38;1.60;;;14.20;99.90;;;;;;5055206;28;20033;-79
2022/08/06 04:49:50;;;;;;;3.08;1.33;;;14.20;99.90;;;;;;5038256;28;20020;-80
2022/08/06 04:52:26;;;;;;;5.20;1.90;;;14.20;99.90;;;;;;5038921;28;20576;-79
2022/08/06 04:54:52;;;;;;;1.90;1.17;;;14.20;99.90;;;;;;5023531;28;20021;-79
2022/08/06 04:57:18;;;;;;;4.40;1.60;;;14.30;99.90;;;;;;5057017;28;20040;-79
2022/08/06 04:59:44;;;;;;;5.30;1.55;;;14.30;99.90;;;;;;5042599;28;20017;-77
2022/08/06 05:02:10;;;;;;;2.75;1.30;;;14.30;99.90;;;;;;5046859;28;20029;-78
2022/08/06 05:04:37;;;;;;;4.22;1.30;;;14.30;99.90;;;;;;5006730;28;20068;-78
2022/08/06 05:07:20;;;;;;;2.63;1.77;;;14.40;99.90;;;;;;5023415;28;20025;-79
2022/08/06 05:09:46;;;;;;;4.60;1.95;;;14.40;99.90;;;;;;5038352;28;20029;-79
2022/08/06 05:12:28;;;;;;;2.88;1.70;;;14.50;99.90;;;;;;5056844;28;20066;-80
2022/08/06 05:15:14;;;;;;;2.63;1.98;;;14.50;99.90;;;;;;5036358;28;20106;-79
2022/08/06 05:17:49;;;;;;;4.88;1.70;;;14.50;99.90;;;;;;5055330;28;20029;-78
2022/08/06 05:20:18;;;;;;;2.58;1.60;;;14.50;99.90;;;;;;5038297;28;20059;-80
2022/08/06 05:22:48;;;;;;;2.80;1.50;;;14.50;99.90;;;;;;5054151;28;20036;-78
2022/08/06 05:25:15;;;;;;;3.15;1.63;;;14.60;99.90;;;;;;5034859;28;20033;-80
2022/08/06 05:27:41;;;;;;;2.53;1.50;;;14.60;99.90;;;;;;5034560;28;20033;-78
2022/08/06 05:30:08;;;;;;;6.03;1.80;;;14.60;99.90;;;;;;5056487;28;20044;-80
2022/08/06 05:32:46;;;;;;;5.53;1.30;;;14.70;99.90;;;;;;5054106;28;20096;-79
2022/08/06 05:35:12;;;;;;;3.03;1.27;;;14.80;99.90;;;;;;5050810;28;20034;-79
2022/08/06 05:37:38;;;;;;;3.78;1.52;;;14.90;99.90;;;;;;5052789;28;20063;-79
2022/08/06 05:40:05;;;;;;;5.15;1.75;;;15.00;99.90;;;;;;5038730;28;20048;-79
2022/08/06 05:42:30;;;;;;;5.18;1.30;;;15.20;99.90;;;;;;5049313;28;20029;-78
2022/08/06 05:44:57;;;;;;;3.38;1.08;;;15.20;99.90;;;;;;5056747;28;20021;-80
2022/08/06 05:47:25;;;;;;;2.38;1.30;;;15.30;99.90;;;;;;5018977;28;20044;-77
2022/08/06 05:50:06;;;;;;;1.98;1.30;;;15.30;99.90;;;;;;5017271;28;20045;-79
2022/08/06 05:52:39;;;;;;;5.75;1.77;;;15.30;99.90;;;;;;5037511;28;20025;-80
2022/08/06 05:55:27;;;;;;;2.17;1.00;;;15.30;99.90;;;;;;5050023;28;20029;-78
2022/08/06 05:58:07;;;;;;;3.72;1.08;;;15.30;99.90;;;;;;5016450;28;20021;-78
2022/08/06 06:00:34;;;;;;;2.55;1.13;;;15.30;99.90;;;;;;5030810;28;20090;-72
2022/08/06 06:03:04;;;;;;;4.53;1.25;;;15.30;99.90;;;;;;5047878;28;20068;-72
2022/08/06 06:05:30;;;;;;;3.63;1.27;;;15.40;99.90;;;;;;5027366;28;20024;-72
2022/08/06 06:07:56;;;;;;;4.03;1.30;;;15.40;99.90;;;;;;5027180;28;20029;-72
2022/08/06 06:10:24;;;;;;;8.45;1.38;;;15.40;99.90;;;;;;5029376;28;20036;-72
2022/08/06 06:12:50;;;;;;;2.70;1.40;;;15.40;99.90;;;;;;5045875;28;20424;-75
2022/08/06 06:15:17;;;;;;;3.03;1.08;;;15.40;99.90;;;;;;5043630;28;20523;-72
2022/08/06 06:18:04;;;;;;;4.10;1.17;;;15.40;99.90;;;;;;5011776;28;20586;-76
2022/08/06 06:20:45;;;;;;;2.40;1.00;;;15.40;99.90;;;;;;5041314;28;20029;-74
2022/08/06 06:23:33;;;;;;;3.65;1.27;;;15.40;99.90;;;;;;5044886;28;22110;-76
2022/08/06 06:26:21;;;;;;;4.57;1.30;;;15.40;99.90;;;;;;5042789;28;20029;-75
2022/08/06 06:28:50;;;;;;;3.83;1.10;;;15.70;99.90;;;;;;5044184;28;20039;-76
2022/08/06 06:31:38;;;;;;;4.70;1.60;;;15.50;99.90;;;;;;5026307;28;20038;-74
2022/08/06 06:34:13;;;;;;;5.22;1.58;;;15.50;99.90;;;;;;5042338;28;20194;-72
2022/08/06 06:36:53;;;;;;;1.92;0.90;;;15.50;99.90;;;;;;5038921;28;20037;-75
2022/08/06 06:39:42;;;;;;;2.60;0.98;;;15.50;99.90;;;;;;5032482;28;20608;-76
2022/08/06 06:42:17;;;;;;;6.47;1.00;;;15.50;99.90;;;;;;5049199;28;20119;-73
2022/08/06 06:45:02;;;;;;;1.55;0.90;;;15.50;99.90;;;;;;5046309;28;20029;-76
2022/08/06 06:47:51;;;;;;;1.73;0.90;;;15.60;99.90;;;;;;5046645;28;20108;-75
2022/08/06 06:50:25;;;;;;;3.95;1.17;;;15.60;99.90;;;;;;5032927;28;20452;-75
2022/08/06 06:52:52;;;;;;;4.15;1.25;;;15.60;99.90;;;;;;5048888;28;20024;-74
2022/08/06 06:55:38;;;;;;;2.42;0.90;;;15.70;99.90;;;;;;5027861;28;21957;-74
2022/08/06 06:58:23;;;;;;;1.83;0.90;;;15.70;99.90;;;;;;5045096;28;21793;-74
2022/08/06 07:00:49;;;;;;;3.40;1.27;;;15.80;99.90;;;;;;5050486;28;20036;-74
2022/08/06 07:03:18;;;;;;;3.17;1.15;;;15.80;99.90;;;;;;5043444;28;20025;-75
2022/08/06 07:05:47;;;;;;;3.10;1.65;;;15.90;99.90;;;;;;5045651;28;20036;-73
2022/08/06 07:08:19;;;;;;;3.95;1.80;;;15.90;99.90;;;;;;5034299;28;20036;-74
2022/08/06 07:10:46;;;;;;;3.20;1.13;;;16.10;99.90;;;;;;5030777;28;20072;-74
2022/08/06 07:13:15;;;;;;;3.42;1.08;;;16.30;99.90;;;;;;5053685;28;20040;-80
2022/08/06 07:15:41;;;;;;;2.53;0.93;;;16.50;99.90;;;;;;5034320;28;20040;-78
2022/08/06 07:18:08;;;;;;;3.88;1.40;;;16.60;99.90;;;;;;5052092;28;20066;-79
2022/08/06 07:20:34;;;;;;;1.17;0.70;;;16.60;99.90;;;;;;5033872;28;20028;-80
2022/08/06 07:23:06;;;;;;;2.03;0.93;;;16.80;99.90;;;;;;5051572;28;20052;-82
2022/08/06 07:25:37;;;;;;;4.47;1.00;;;16.90;99.90;;;;;;5034395;28;20121;-84
2022/08/06 07:28:04;;;;;;;2.35;1.00;;;16.90;99.90;;;;;;5038197;28;20044;-80
2022/08/06 07:30:32;;;;;;;2.38;0.77;;;17.10;99.90;;;;;;5017266;28;20108;-78
2022/08/06 07:33:04;;;;;;;1.63;0.90;;;17.30;99.90;;;;;;5053579;28;20076;-78
2022/08/06 07:35:32;;;;;;;3.85;0.80;;;17.30;99.90;;;;;;5025808;28;20041;-80
2022/08/06 07:38:01;;;;;;;4.03;0.70;;;17.30;99.90;;;;;;5019829;28;20032;-79
2022/08/06 07:40:52;;;;;;;3.10;0.90;;;17.20;99.90;;;;;;5034469;28;20033;-80
2022/08/06 07:43:24;;;;;;;2.20;0.73;;;17.00;99.90;;;;;;5015822;28;20037;-77
2022/08/06 07:45:52;;;;;;;1.92;0.63;;;16.90;99.90;;;;;;5027382;28;20075;-79
2022/08/06 07:48:47;;;;;;;1.98;0.68;;;16.90;99.90;;;;;;5033320;28;20058;-81
2022/08/06 07:51:15;;;;;;;3.90;1.10;;;16.90;99.90;;;;;;5025957;28;20032;-77
2022/08/06 07:53:42;;;;;;;1.85;0.77;;;16.90;99.90;;;;;;5028581;28;20033;-78
2022/08/06 07:56:09;;;;;;;3.47;1.30;;;16.90;99.90;;;;;;5047663;28;20642;-77
2022/08/06 07:58:36;;;;;;;1.85;0.60;;;17.00;99.90;;;;;;5048510;28;20029;-79
2022/08/06 08:01:03;;;;;;;3.20;0.63;;;17.20;99.90;;;;;;5043999;28;20492;-78
2022/08/06 08:06:18;;;;;;;3.97;0.85;;;17.50;99.90;;;;;;5047098;28;20108;-79
2022/08/06 08:08:45;;;;;;;4.78;0.65;;;17.50;99.90;;;;;;5051379;28;20511;-78
2022/08/06 08:11:13;;;;;;;3.78;1.33;;;17.40;99.90;;;;;;5032191;28;20029;-80
2022/08/06 08:13:39;;;;;;;7.25;1.35;;;17.30;99.90;;;;;;5004193;28;20036;-78
2022/08/06 08:16:07;;;;;;;5.13;1.10;;;17.20;99.90;;;;;;5023627;28;20029;-76
2022/08/06 08:18:33;;;;;;;2.50;0.93;;;17.20;99.90;;;;;;5030620;28;20171;-77
2022/08/06 08:21:01;;;;;;;8.98;1.10;;;17.10;99.90;;;;;;5033357;28;20049;-78
2022/08/06 08:23:30;;;;;;;2.35;0.80;;;17.10;99.90;;;;;;5012253;28;20112;-83
2022/08/06 08:26:01;;;;;;;1.30;0.60;;;17.10;99.90;;;;;;5046930;28;20488;-76
2022/08/06 08:28:28;;;;;;;3.92;1.05;;;17.10;99.90;;;;;;5031780;28;20404;-76
2022/08/06 08:30:58;;;;;;;3.15;0.90;;;17.20;99.90;;;;;;5047933;28;20024;-76
2022/08/06 08:33:25;;;;;;;3.42;1.05;;;17.20;99.90;;;;;;5049500;28;20072;-76
2022/08/06 08:35:51;;;;;;;4.97;1.35;;;17.20;99.90;;;;;;5046984;28;20079;-77
2022/08/06 08:38:17;;;;;;;3.63;0.73;;;17.30;99.90;;;;;;5015137;28;20492;-77
2022/08/06 08:40:44;;;;;;;1.65;0.50;;;17.30;99.90;;;;;;5048899;28;20063;-77
2022/08/06 08:43:14;;;;;;;1.83;0.55;;;17.30;99.90;;;;;;5053869;28;20036;-78
2022/08/06 08:45:42;;;;;;;3.50;0.70;;;17.30;99.90;;;;;;5048013;28;20549;-79
2022/08/06 08:48:12;;;;;;;3.42;0.90;;;17.40;99.90;;;;;;5045360;28;20033;-78
2022/08/06 08:50:40;;;;;;;2.17;0.60;;;17.40;99.90;;;;;;5030444;28;20036;-78
2022/08/06 08:53:11;;;;;;;2.30;0.77;;;17.50;99.90;;;;;;5026999;28;20029;-76
2022/08/06 08:55:37;;;;;;;;;;;17.60;99.90;;;;;;5028154;28;20163;-78
2022/08/06 08:58:03;;;;;;;1.67;0.40;;;17.70;99.90;;;;;;5048319;28;19996;-78
2022/08/06 09:00:29;;;;;;;2.97;0.70;;;17.60;99.90;;;;;;5011524;28;20044;-77
2022/08/06 09:02:56;;;;;;;2.38;0.70;;;17.60;99.90;;;;;;5029333;28;20029;-77
2022/08/06 09:05:22;;;;;;;3.30;1.17;;;17.70;99.90;;;;;;5021162;28;20036;-77
2022/08/06 09:10:24;;;;;;;6.18;1.30;;;17.90;99.90;;;;;;5509630;22;20045;-79
2022/08/06 09:12:50;;;;;;;4.60;0.85;;;18.00;99.90;;;;;;5047817;28;20024;-75
2022/08/06 09:15:17;;;;;;;3.33;0.93;;;18.10;99.90;;;;;;5033669;28;20139;-76
2022/08/06 09:17:45;;;;;;;2.47;0.50;;;18.10;99.90;;;;;;5046253;28;20096;-76
2022/08/06 09:20:11;;;;;;;2.78;0.95;;;18.00;99.90;;;;;;5044848;28;20381;-77
2022/08/06 09:22:36;;;;;;;1.73;0.75;;;18.10;99.90;;;;;;5029762;28;20025;-75
2022/08/06 09:25:03;;;;;;;2.40;0.70;;;18.20;99.90;;;;;;5034792;23;20053;-76
2022/08/06 09:27:34;;;;;;;2.95;0.93;;;18.20;99.90;;;;;;5025082;28;20025;-76
2022/08/06 09:30:03;;;;;;;4.10;0.60;;;18.30;99.90;;;;;;5025606;28;20396;-76
2022/08/06 09:32:44;;;;;;;2.38;1.00;;;18.30;99.90;;;;;;5007716;28;20389;-77
2022/08/06 09:35:20;;;;;;;3.17;0.93;;;18.50;99.90;;;;;;4988191;28;20026;-75
2022/08/06 09:37:47;;;;;;;2.28;0.70;;;18.80;99.90;;;;;;5016199;28;20030;-76
2022/08/06 09:40:18;;;;;;;2.30;0.82;;;18.80;99.90;;;;;;5000261;28;20393;-77
2022/08/06 09:42:48;;;;;;;2.78;0.50;;;18.90;99.90;;;;;;4999734;28;20040;-77
2022/08/06 09:45:16;;;;;;;1.90;0.60;;;18.90;99.90;;;;;;4998706;28;20041;-73
2022/08/06 09:47:42;;;;;;;1.90;0.85;;;18.90;99.80;;;;;;5000078;28;21703;-73
2022/08/06 09:50:09;;;;;;;2.05;0.60;;;18.90;99.00;;;;;;5000862;28;20025;-73
2022/08/06 09:52:35;;;;;;;2.38;0.50;;;18.90;98.50;;;;;;5000027;28;20034;-73
2022/08/06 09:55:00;;;;;;;4.53;0.73;;;18.90;98.20;;;;;;5000605;28;20030;-73
2022/08/06 09:57:41;;;;;;;16.38;6.28;;;18.90;97.90;;;;;;5003102;28;20025;-72
2022/08/06 10:00:08;;;;;;;9.60;3.70;;;19.00;97.70;;;;;;5001377;28;20042;-79
2022/08/06 10:02:34;;;;;;;5.78;1.85;;;19.10;97.60;;;;;;4997799;28;20091;-77
2022/08/06 10:05:09;;;;;;;6.75;1.15;;;19.10;97.60;;;;;;5009573;28;20034;-77
2022/08/06 10:07:34;;;;;;;5.13;1.58;;;19.00;98.10;;;;;;4999720;28;20116;-77
2022/08/06 10:10:01;;;;;;;3.92;1.00;;;18.80;98.50;;;;;;4999869;28;20885;-79
2022/08/06 10:12:27;;;;;;;2.25;1.20;;;18.70;98.60;;;;;;5005742;28;20040;-78
2022/08/06 10:14:53;;;;;;;2.22;0.60;;;18.80;99.10;;;;;;5002783;28;20117;-77
2022/08/06 10:17:21;;;;;;;2.95;1.15;;;18.70;95.20;;;;;;5006916;28;20029;-78
2022/08/06 10:20:10;;;;;;;3.58;0.90;;;18.70;96.00;;;;;;4990677;28;20350;-78
2022/08/06 10:22:51;;;;;;;2.95;0.63;;;18.80;94.40;;;;;;5009872;28;20022;-78
2022/08/06 10:25:20;;;;;;;1.65;0.60;;;18.80;95.80;;;;;;4988028;28;20030;-80
2022/08/06 10:27:47;;;;;;;3.25;1.00;;;18.90;95.10;;;;;;5004479;28;20386;-77
2022/08/06 10:30:13;;;;;;;3.42;0.80;;;19.00;94.90;;;;;;5006069;28;20030;-77
2022/08/06 10:33:01;;;;;;;4.70;1.30;;;19.00;95.20;;;;;;5000926;28;20049;-77
2022/08/06 10:35:27;;;;;;;2.25;1.20;;;19.10;95.50;;;;;;4986771;28;20038;-78
2022/08/06 10:37:58;;;;;;;4.43;2.10;;;19.30;95.80;;;;;;5007379;28;20029;-77
2022/08/06 10:40:25;;;;;;;;;;;19.50;95.90;;;;;;5002858;28;20033;-78
2022/08/06 10:42:52;;;;;;;4.07;1.30;;;19.60;96.00;;;;;;5003729;28;19909;-77
2022/08/06 10:45:18;;;;;;;4.20;1.90;;;19.70;95.90;;;;;;5003846;28;20044;-77
2022/08/06 10:47:47;;;;;;;4.95;1.90;;;19.50;95.50;;;;;;5006311;28;20065;-75
2022/08/06 10:50:14;;;;;;;5.55;2.05;;;19.40;95.10;;;;;;5007791;28;20030;-76
2022/08/06 10:52:41;;;;;;;4.60;1.70;;;19.30;94.10;;;;;;5005129;28;21494;-73
2022/08/06 10:55:08;;;;;;;4.40;1.33;;;19.30;93.20;;;;;;5002634;28;20045;-75
2022/08/06 10:57:35;;;;;;;4.75;2.17;;;19.30;93.80;;;;;;5002244;28;20029;-75
2022/08/06 11:00:03;;;;;;;5.47;2.10;;;19.40;92.90;;;;;;5001831;28;20116;-76
2022/08/06 11:03:11;;;;;;;4.85;2.20;;;19.40;92.50;;;;;;5002760;28;20035;-74
2022/08/06 11:05:39;;;;;;;3.38;2.20;;;19.50;91.80;;;;;;4991748;28;20038;-77
2022/08/06 11:08:23;;;;;;;7.80;2.90;;;19.50;91.40;;;;;;5009000;28;20030;-79
2022/08/06 11:11:26;;;;;;;11.18;3.75;;;19.80;93.70;;;;;;5006377;28;20033;-79
2022/08/06 11:14:02;;;;;;;20.83;8.20;;;20.40;94.00;;;;;;5027486;28;20029;-78
2022/08/06 11:16:29;;;;;;;317.88;198.07;;;20.60;94.40;;;;;;5025940;28;20084;-77
2022/08/06 11:19:10;;;;;;;175.70;107.85;;;20.80;94.80;;;;;;5003419;28;20111;-77
2022/08/06 11:21:55;;;;;;;115.20;73.65;;;21.50;93.50;;;;;;5018744;28;20025;-77
2022/08/06 11:24:21;;;;;;;32.33;17.08;;;21.70;92.40;;;;;;5004153;28;20042;-77
2022/08/06 11:26:47;;;;;;;18.67;12.25;;;22.10;90.00;;;;;;5003577;28;20033;-76
2022/08/06 11:29:15;;;;;;;20.50;12.00;;;22.70;84.70;;;;;;5004276;28;20034;-76
2022/08/06 11:31:47;;;;;;;12.20;6.03;;;23.60;83.90;;;;;;5002518;28;20381;-77
2022/08/06 11:34:15;;;;;;;7.10;3.35;;;25.30;77.80;;;;;;4990719;28;20034;-79
2022/08/06 11:36:58;;;;;;;7.47;3.42;;;27.10;68.60;;;;;;5012131;28;20409;-78
2022/08/06 11:39:27;;;;;;;4.70;2.90;;;28.30;62.00;;;;;;5008841;28;20037;-79
2022/08/06 11:41:56;;;;;;;5.03;2.78;;;28.70;58.90;;;;;;5008738;28;20045;-77
2022/08/06 11:44:30;;;;;;;4.03;2.13;;;29.60;55.70;;;;;;5006550;28;20036;-77
2022/08/06 11:47:14;;;;;;;3.30;2.55;;;29.30;52.90;;;;;;5001745;28;20164;-78
2022/08/06 11:49:45;;;;;;;4.55;2.65;;;29.40;50.10;;;;;;4985973;28;20046;-77
2022/08/06 11:52:37;;;;;;;3.75;2.03;;;29.00;50.50;;;;;;5020945;28;21249;-75
2022/08/06 11:55:06;;;;;;;3.63;2.90;;;28.60;51.20;;;;;;5004073;28;20041;-79
2022/08/06 11:57:32;;;;;;;4.70;3.17;;;27.70;52.00;;;;;;5004455;28;20062;-76
2022/08/06 11:59:58;;;;;;;5.15;2.80;;;26.60;53.80;;;;;;5002061;28;20032;-76
2022/08/06 12:02:39;;;;;;;5.68;2.60;;;26.40;54.40;;;;;;5003907;28;20026;-75
2022/08/06 12:05:06;;;;;;;2.92;2.38;;;26.10;56.50;;;;;;5001475;28;20034;-73
2022/08/06 12:07:36;;;;;;;6.65;2.63;;;26.00;54.90;;;;;;5005156;28;20025;-72
2022/08/06 12:10:05;;;;;;;4.65;2.83;;;25.90;54.60;;;;;;5019314;28;20030;-74
2022/08/06 12:12:33;;;;;;;4.80;2.58;;;25.70;56.20;;;;;;5001967;28;20033;-73
2022/08/06 12:15:02;;;;;;;7.60;2.63;;;25.60;55.60;;;;;;4999175;28;20113;-73
2022/08/06 12:17:29;;;;;;;3.88;2.50;;;25.80;55.20;;;;;;5000318;28;20554;-75
2022/08/06 12:19:57;;;;;;;3.85;3.05;;;26.10;56.60;;;;;;5000788;28;20513;-75
2022/08/06 12:22:23;;;;;;;4.72;2.70;;;26.40;54.50;;;;;;5001800;28;20105;-75
2022/08/06 12:24:54;;;;;;;5.85;3.30;;;26.90;53.70;;;;;;4994987;28;20517;-74
2022/08/06 12:27:21;;;;;;;6.03;3.15;;;27.00;54.20;;;;;;4998034;28;20573;-75
2022/08/06 12:29:48;;;;;;;5.10;2.47;;;27.10;54.00;;;;;;4997322;28;20397;-74
2022/08/06 12:32:22;;;;;;;4.45;2.50;;;27.20;50.60;;;;;;5000016;28;20065;-74
2022/08/06 12:34:49;;;;;;;4.40;2.50;;;27.40;49.90;;;;;;5002784;28;20037;-74
2022/08/06 12:37:16;;;;;;;4.97;2.75;;;27.40;46.30;;;;;;4998120;28;20026;-72
2022/08/06 12:42:27;;;;;;;3.05;2.63;;;27.60;46.50;;;;;;5000435;28;20030;-73
2022/08/06 12:44:53;;;;;;;2.88;2.60;;;28.00;45.70;;;;;;4995980;28;20030;-73
2022/08/06 12:47:20;;;;;;;3.25;2.80;;;28.40;45.50;;;;;;5004609;28;20021;-75
2022/08/06 12:49:46;;;;;;;5.25;2.72;;;28.80;46.60;;;;;;4996484;28;20061;-74
2022/08/06 12:52:20;;;;;;;5.35;2.85;;;28.80;46.20;;;;;;4996317;28;20057;-73
2022/08/06 12:54:46;;;;;;;3.40;2.75;;;28.90;43.80;;;;;;4999683;28;20591;-74
2022/08/06 12:57:30;;;;;;;5.22;2.90;;;28.90;44.50;;;;;;4999768;28;20500;-76
2022/08/06 12:59:57;;;;;;;3.13;2.80;;;29.20;44.50;;;;;;4996995;28;20180;-77
2022/08/06 13:02:24;;;;;;;4.30;2.90;;;29.30;44.20;;;;;;4998474;28;20026;-74
2022/08/06 13:04:53;;;;;;;5.28;2.85;;;29.30;42.00;;;;;;4999130;28;20061;-74
2022/08/06 13:07:19;;;;;;;4.88;2.67;;;29.30;41.80;;;;;;5023621;28;20112;-76
2022/08/06 13:09:46;;;;;;;4.10;3.22;;;29.40;42.60;;;;;;5013482;28;20049;-73
2022/08/06 13:12:13;;;;;;;4.75;3.35;;;29.80;42.10;;;;;;5018617;28;20042;-75
2022/08/06 13:14:53;;;;;;;2.85;2.55;;;29.80;41.80;;;;;;4996367;28;20081;-74